Time;durP1;ratioP1;P1;durP2;ratioP2;P2;SDS_P1;SDS_P2;PMS_P1;PMS_P2;Temp;Humidity;BMP_temperature;BMP_pressure;BME280_temperature;BME280_humidity;BME280_pressure;Samples;Min_cycle;Max_cycle;Signal;HPM_P1;HPM_P2
2022/04/11 00:01:47;;;;;;;3.22;2.03;;;;;;;11.45;42.12;101624.53;4914324;29;20529;-86
2022/04/11 00:04:14;;;;;;;2.95;2.05;;;;;;;11.51;41.25;101624.09;4932617;29;20106;-86
2022/04/11 00:06:41;;;;;;;6.75;2.10;;;;;;;11.43;39.65;101586.59;4915628;29;20047;-85
2022/04/11 00:09:07;;;;;;;3.00;1.73;;;;;;;11.67;39.73;101623.75;4915929;29;20048;-86
2022/04/11 00:11:34;;;;;;;2.97;1.60;;;;;;;11.73;40.20;101621.47;4915673;29;20138;-86
2022/04/11 00:14:04;;;;;;;1.90;1.80;;;;;;;11.53;39.61;101574.31;4916411;29;20051;-85
2022/04/11 00:16:31;;;;;;;1.70;1.30;;;;;;;11.84;39.36;101635.72;4915655;29;20058;-86
2022/04/11 00:18:58;;;;;;;2.03;1.70;;;;;;;11.80;39.22;101634.31;4932876;29;20079;-86
2022/04/11 00:21:25;;;;;;;1.95;1.77;;;;;;;11.54;39.90;101608.72;4915705;29;20418;-87
2022/04/11 00:23:52;;;;;;;1.67;1.40;;;;;;;11.69;39.52;101612.00;4915489;29;20142;-85
2022/04/11 00:26:18;;;;;;;2.10;1.80;;;;;;;11.42;40.46;101576.94;4916345;29;20059;-86
2022/04/11 00:28:45;;;;;;;1.63;1.45;;;;;;;11.65;40.48;101626.53;4915410;29;20610;-85
2022/04/11 00:31:12;;;;;;;1.92;1.52;;;;;;;10.31;40.37;101419.75;4915465;29;20071;-86
2022/04/11 00:33:38;;;;;;;2.03;1.70;;;;;;;10.80;40.72;101512.53;4932325;29;20462;-85
2022/04/11 00:36:05;;;;;;;1.80;1.70;;;;;;;9.85;40.57;101365.63;4915269;29;20083;-85
2022/04/11 00:38:32;;;;;;;1.95;1.55;;;;;;;10.10;40.24;101406.25;4932646;29;20075;-87
2022/04/11 00:40:59;;;;;;;2.25;1.70;;;;;;;10.38;40.41;101452.84;4931314;28;20050;-86
2022/04/11 00:43:30;;;;;;;2.28;1.75;;;;;;;11.24;39.63;101585.34;4953995;28;20054;-86
2022/04/11 00:45:57;;;;;;;2.57;1.90;;;;;;;10.13;40.53;101406.03;4954097;28;20164;-86
2022/04/11 00:48:24;;;;;;;1.75;1.30;;;;;;;11.11;39.39;101561.50;4969494;28;20835;-86
2022/04/11 00:50:54;;;;;;;2.00;1.30;;;;;;;11.40;40.11;101616.06;4953187;28;20105;-86
2022/04/11 00:53:22;;;;;;;2.65;1.83;;;;;;;11.38;40.74;101618.00;4969153;28;20272;-87
2022/04/11 00:55:50;;;;;;;3.30;1.70;;;;;;;11.16;40.18;101585.06;4953069;28;20082;-86
2022/04/11 00:58:18;;;;;;;1.75;1.63;;;;;;;10.97;40.84;101545.78;4953596;28;20050;-85
2022/04/11 01:00:45;;;;;;;2.42;1.42;;;;;;;10.97;40.45;101556.41;4971914;28;20049;-85
2022/04/11 01:03:11;;;;;;;2.53;1.75;;;;;;;10.88;41.04;101530.53;4970110;28;20086;-86
2022/04/11 01:05:38;;;;;;;2.47;1.80;;;;;;;11.52;39.90;101610.66;4968867;28;20075;-86
2022/04/11 01:08:08;;;;;;;1.83;1.73;;;;;;;11.55;40.43;101609.56;4965532;28;20055;-86
2022/04/11 01:10:35;;;;;;;1.88;1.52;;;;;;;11.50;40.68;101623.22;4949533;29;20043;-85
2022/04/11 01:13:02;;;;;;;1.73;1.63;;;;;;;11.27;41.14;101590.44;4948768;28;20618;-86
2022/04/11 01:15:29;;;;;;;8.45;2.42;;;;;;;10.30;40.61;101432.19;4950847;29;20142;-86
2022/04/11 01:17:56;;;;;;;1.85;1.70;;;;;;;11.02;40.91;101548.94;4951047;29;20051;-86
2022/04/11 01:20:23;;;;;;;2.28;1.98;;;;;;;11.45;41.78;101628.03;4950395;29;20078;-85
2022/04/11 01:22:49;;;;;;;3.30;1.80;;;;;;;11.35;42.00;101624.41;4950592;29;20127;-86
2022/04/11 01:25:18;;;;;;;4.32;2.10;;;;;;;11.16;41.87;101592.19;4949273;29;20656;-86
2022/04/11 01:27:44;;;;;;;2.47;1.67;;;;;;;10.85;41.95;101568.81;4950474;29;20114;-86
2022/04/11 01:30:14;;;;;;;3.30;2.00;;;;;;;10.72;43.19;101552.06;4949772;29;20051;-85
2022/04/11 01:32:41;;;;;;;2.10;1.55;;;;;;;10.87;42.12;101593.44;4949110;29;20087;-86
2022/04/11 01:35:25;;;;;;;3.15;1.83;;;;;;;10.90;42.23;101603.84;4950163;29;20517;-87
2022/04/11 01:37:55;;;;;;;2.60;1.92;;;;;;;11.02;42.78;101628.66;4949041;29;20577;-86
2022/04/11 01:40:22;;;;;;;2.53;1.67;;;;;;;10.69;42.37;101584.16;4945840;29;20107;-87
2022/04/11 01:42:48;;;;;;;3.15;1.98;;;;;;;10.84;42.82;101592.81;4931218;29;20044;-85
2022/04/11 01:45:16;;;;;;;2.00;1.80;;;;;;;10.86;43.75;101606.81;4929921;29;20141;-86
2022/04/11 01:47:43;;;;;;;2.00;1.77;;;;;;;10.75;42.90;101578.38;4929829;29;20043;-85
2022/04/11 01:50:10;;;;;;;2.45;1.90;;;;;;;10.60;43.85;101569.75;4930942;29;20079;-86
2022/04/11 01:52:37;;;;;;;3.15;2.00;;;;;;;10.95;43.67;101632.72;4929956;29;20055;-86
2022/04/11 01:55:04;;;;;;;2.80;1.70;;;;;;;10.89;44.83;101634.00;4948313;28;20143;-85
2022/04/11 01:57:46;;;;;;;1.67;1.50;;;;;;;10.66;45.20;101617.13;4948882;29;20091;-85
2022/04/11 02:00:13;;;;;;;2.42;1.83;;;;;;;10.65;44.70;101622.53;4933578;29;20479;-86
2022/04/11 02:02:40;;;;;;;3.92;1.60;;;;;;;10.59;45.42;101625.66;4942099;29;20057;-85
2022/04/11 02:05:07;;;;;;;2.50;1.85;;;;;;;10.45;44.19;101621.31;4932792;29;20062;-86
2022/04/11 02:07:34;;;;;;;2.45;1.80;;;;;;;10.47;43.98;101625.56;4932841;29;20142;-86
2022/04/11 02:10:00;;;;;;;3.78;1.77;;;;;;;10.60;44.53;101659.19;4953945;29;20047;-86
2022/04/11 02:12:27;;;;;;;2.90;2.00;;;;;;;9.70;44.51;101524.03;4937637;29;20051;-86
2022/04/11 02:14:53;;;;;;;4.00;1.92;;;;;;;9.82;45.47;101551.47;4952605;29;20572;-86
2022/04/11 02:17:20;;;;;;;2.10;1.85;;;;;;;9.17;46.22;101465.88;4933242;29;20089;-86
2022/04/11 02:19:47;;;;;;;1.77;1.67;;;;;;;9.27;44.79;101486.41;4932912;29;20073;-87
2022/04/11 02:22:13;;;;;;;2.08;1.77;;;;;;;9.25;44.04;101467.13;4933123;29;20140;-87
2022/04/11 02:24:40;;;;;;;2.97;1.58;;;;;;;9.25;42.92;101457.41;4950022;28;20471;-87
2022/04/11 02:27:07;;;;;;;2.72;1.48;;;;;;;9.30;42.88;101467.69;4952634;28;20675;-87
2022/04/11 02:29:33;;;;;;;1.92;1.75;;;;;;;10.46;42.22;101634.50;4936440;29;20122;-85
2022/04/11 02:32:00;;;;;;;2.13;1.42;;;;;;;10.79;41.03;101670.19;4937713;29;20162;-86
2022/04/11 02:34:27;;;;;;;1.98;1.48;;;;;;;10.12;41.91;101563.50;4933408;29;20051;-86
2022/04/11 02:36:53;;;;;;;3.80;1.50;;;;;;;9.90;41.08;101516.44;4949636;29;20051;-86
2022/04/11 02:39:20;;;;;;;2.03;1.58;;;;;;;10.76;41.63;101675.72;4932554;29;20075;-86
2022/04/11 02:41:47;;;;;;;1.98;1.50;;;;;;;10.73;41.84;101681.25;4946647;28;20141;-87
2022/04/11 02:44:14;;;;;;;2.20;1.50;;;;;;;9.99;41.88;101559.09;4968618;28;20053;-86
2022/04/11 02:46:44;;;;;;;2.33;1.50;;;;;;;10.75;42.40;101679.31;4968774;28;20416;-87
2022/04/11 02:49:11;;;;;;;2.58;1.90;;;;;;;10.60;42.48;101670.66;4951634;28;20060;-87
2022/04/11 02:51:37;;;;;;;1.80;1.50;;;;;;;10.22;44.05;101596.41;4968120;28;20576;-85
2022/04/11 02:54:07;;;;;;;1.95;1.52;;;;;;;10.34;43.87;101610.63;4950596;28;20141;-85
2022/04/11 02:56:34;;;;;;;2.60;1.77;;;;;;;10.63;42.72;101658.97;4950794;28;20492;-85
2022/04/11 02:59:01;;;;;;;2.42;1.45;;;;;;;10.39;44.22;101635.91;4968708;28;20425;-85
2022/04/11 03:01:28;;;;;;;2.47;1.63;;;;;;;9.87;42.66;101565.25;4950689;28;20513;-84
2022/04/11 03:03:54;;;;;;;2.10;1.58;;;;;;;9.29;42.47;101466.81;4968168;28;20047;-85
2022/04/11 03:06:21;;;;;;;1.90;1.70;;;;;;;9.04;42.43;101437.69;4950915;28;20082;-84
2022/04/11 03:08:48;;;;;;;1.63;1.52;;;;;;;10.58;42.51;101682.34;4951185;28;20058;-85
2022/04/11 03:11:14;;;;;;;1.83;1.30;;;;;;;9.93;43.31;101575.47;4951348;28;20307;-86
2022/04/11 03:13:47;;;;;;;1.70;1.23;;;;;;;10.53;43.75;101695.09;4953847;28;20055;-85
2022/04/11 03:16:14;;;;;;;4.65;1.80;;;;;;;10.43;44.54;101679.81;4969441;28;20059;-87
2022/04/11 03:18:40;;;;;;;1.70;1.60;;;;;;;10.37;44.50;101669.66;4967911;28;20105;-87
2022/04/11 03:21:07;;;;;;;1.77;1.45;;;;;;;10.09;43.43;101632.72;4950557;28;20383;-87
2022/04/11 03:23:33;;;;;;;2.63;1.60;;;;;;;10.32;43.60;101690.38;4966534;28;20141;-85
2022/04/11 03:26:00;;;;;;;2.80;1.75;;;;;;;10.20;43.44;101669.97;4950805;28;20481;-87
2022/04/11 03:28:26;;;;;;;1.58;1.42;;;;;;;10.30;43.94;101688.78;4966390;28;20050;-86
2022/04/11 03:30:53;;;;;;;1.52;1.38;;;;;;;9.86;44.77;101621.94;4950399;28;20146;-85
2022/04/11 03:33:20;;;;;;;2.53;1.42;;;;;;;10.27;45.51;101693.31;4967827;28;20075;-85
2022/04/11 03:35:46;;;;;;;3.10;1.85;;;;;;;9.56;44.58;101593.06;4965688;28;20147;-85
2022/04/11 03:38:13;;;;;;;5.47;1.90;;;;;;;8.61;44.16;101433.50;4950160;28;20500;-86
2022/04/11 03:40:40;;;;;;;2.60;1.70;;;;;;;9.90;44.27;101647.25;4957503;28;20528;-84
2022/04/11 03:43:06;;;;;;;2.30;1.52;;;;;;;10.13;45.09;101687.28;4912831;29;20398;-86
2022/04/11 03:45:33;;;;;;;2.70;1.90;;;;;;;10.07;45.30;101683.22;4912279;29;20391;-86
2022/04/11 03:48:00;;;;;;;1.75;1.65;;;;;;;8.91;46.20;101490.66;4912152;29;20162;-87
2022/04/11 03:50:26;;;;;;;4.43;1.60;;;;;;;8.65;45.95;101445.59;4929581;29;20059;-87
2022/04/11 03:52:53;;;;;;;5.63;1.70;;;;;;;8.23;46.10;101394.56;4912256;29;20127;-86
2022/04/11 03:55:20;;;;;;;7.93;2.83;;;;;;;9.27;45.62;101560.59;4929269;29;20111;-86
2022/04/11 03:57:46;;;;;;;3.15;1.90;;;;;;;9.97;45.80;101677.72;4928966;29;20083;-86
2022/04/11 04:00:14;;;;;;;3.17;1.83;;;;;;;9.88;46.83;101673.06;4912006;29;20478;-86
2022/04/11 04:02:40;;;;;;;3.88;1.80;;;;;;;9.61;46.58;101633.34;4908867;29;20060;-86
2022/04/11 04:05:08;;;;;;;2.90;1.73;;;;;;;9.88;46.48;101696.94;4908616;29;20052;-85
2022/04/11 04:07:38;;;;;;;3.05;1.50;;;;;;;9.30;46.28;101592.22;4908736;29;20096;-86
2022/04/11 04:10:06;;;;;;;1.83;1.23;;;;;;;9.71;46.05;101657.44;4908702;29;20499;-86
2022/04/11 04:12:33;;;;;;;2.10;1.60;;;;;;;10.03;46.55;101706.50;4908694;29;20498;-86
2022/04/11 04:15:00;;;;;;;2.05;1.60;;;;;;;9.92;46.26;101693.09;4908742;29;20163;-86
2022/04/11 04:17:26;;;;;;;1.75;1.48;;;;;;;9.82;46.67;101681.44;4909023;29;20147;-86
2022/04/11 04:19:54;;;;;;;5.13;1.92;;;;;;;9.90;47.16;101687.03;4923957;29;20067;-86
2022/04/11 04:22:21;;;;;;;2.65;1.60;;;;;;;10.04;46.86;101709.97;4919484;29;20052;-86
2022/04/11 04:24:48;;;;;;;4.53;1.95;;;;;;;9.92;46.86;101677.19;4909037;29;20574;-86
2022/04/11 04:27:15;;;;;;;3.33;1.55;;;;;;;9.97;45.04;101688.31;4908894;29;20072;-86
2022/04/11 04:29:41;;;;;;;1.92;1.67;;;;;;;9.91;45.19;101667.53;4907112;29;20066;-86
2022/04/11 04:32:08;;;;;;;4.35;2.10;;;;;;;10.20;45.67;101717.75;4906431;29;20056;-86
2022/04/11 04:34:34;;;;;;;3.97;1.83;;;;;;;9.94;46.52;101687.69;4908165;29;20064;-85
2022/04/11 04:37:01;;;;;;;2.00;1.80;;;;;;;8.51;46.69;101451.81;4905903;29;20091;-85
2022/04/11 04:39:28;;;;;;;2.83;1.80;;;;;;;8.44;46.33;101444.38;4908791;29;20599;-85
2022/04/11 04:41:54;;;;;;;2.65;1.80;;;;;;;9.97;46.99;101704.25;4921856;29;20051;-85
2022/04/11 04:44:21;;;;;;;5.57;1.83;;;;;;;8.66;46.93;101497.56;4925287;29;20058;-85
2022/04/11 04:46:48;;;;;;;2.30;1.50;;;;;;;8.86;47.59;101535.09;4925286;29;20099;-85
2022/04/11 04:49:15;;;;;;;4.65;2.38;;;;;;;8.86;47.27;101551.88;4928457;29;20171;-85
2022/04/11 04:51:41;;;;;;;2.40;1.48;;;;;;;9.11;48.15;101592.59;4929486;29;20056;-84
2022/04/11 04:54:08;;;;;;;5.70;2.63;;;;;;;9.49;48.22;101653.63;4928874;29;20083;-85
2022/04/11 04:56:34;;;;;;;3.67;2.20;;;;;;;9.11;47.45;101582.00;4929703;29;20068;-86
2022/04/11 04:59:01;;;;;;;4.70;2.70;;;;;;;9.72;46.60;101672.41;4928753;29;20502;-85
2022/04/11 05:01:28;;;;;;;4.90;2.65;;;;;;;9.41;46.30;101626.78;4933481;28;20111;-85
2022/04/11 05:03:54;;;;;;;7.00;2.75;;;;;;;9.23;46.43;101586.47;4968615;28;20050;-85
2022/04/11 05:06:22;;;;;;;6.63;5.32;;;;;;;9.53;46.82;101673.66;4968486;28;20567;-85
2022/04/11 05:08:49;;;;;;;4.13;2.25;;;;;;;9.75;47.36;101714.63;4969042;28;20166;-86
2022/04/11 05:11:16;;;;;;;6.15;2.80;;;;;;;9.58;47.53;101687.44;4950856;28;20133;-85
2022/04/11 05:14:16;;;;;;;5.72;2.53;;;;;;;9.77;47.79;101724.19;4952568;28;20102;-84
2022/04/11 05:16:43;;;;;;;5.85;2.10;;;;;;;9.62;48.06;101720.75;4931247;29;20142;-85
2022/04/11 05:19:10;;;;;;;3.83;3.15;;;;;;;9.49;47.93;101698.69;4930699;29;20055;-85
2022/04/11 05:21:37;;;;;;;3.10;2.80;;;;;;;9.70;47.51;101724.69;4949447;28;20066;-84
2022/04/11 05:24:04;;;;;;;5.18;2.75;;;;;;;9.52;48.01;101724.97;4950195;29;20047;-85
2022/04/11 05:26:30;;;;;;;3.78;2.75;;;;;;;9.18;48.67;101679.50;4935452;29;20079;-86
2022/04/11 05:28:57;;;;;;;5.22;2.60;;;;;;;9.17;48.18;101669.88;4953666;28;20047;-86
2022/04/11 05:31:23;;;;;;;5.82;2.72;;;;;;;9.41;48.94;101711.59;4931167;29;20094;-85
2022/04/11 05:33:50;;;;;;;5.35;3.05;;;;;;;9.28;48.88;101692.16;4948454;29;20062;-85
2022/04/11 05:36:17;;;;;;;6.22;2.95;;;;;;;9.48;49.34;101726.13;4947544;29;20049;-84
2022/04/11 05:38:44;;;;;;;7.30;3.33;;;;;;;9.42;49.71;101713.31;4948120;28;20055;-86
2022/04/11 05:41:11;;;;;;;7.25;2.83;;;;;;;9.55;49.32;101739.84;4939612;28;20478;-85
2022/04/11 05:43:38;;;;;;;4.10;2.85;;;;;;;9.32;48.66;101696.28;4949533;28;20130;-85
2022/04/11 05:46:05;;;;;;;5.68;2.97;;;;;;;9.49;48.57;101717.25;4930113;29;20051;-85
2022/04/11 05:48:35;;;;;;;3.42;3.05;;;;;;;9.67;48.77;101743.47;4949208;29;20055;-86
2022/04/11 05:51:02;;;;;;;3.58;3.05;;;;;;;9.74;49.32;101742.09;4935322;29;20063;-86
2022/04/11 05:53:29;;;;;;;8.38;3.72;;;;;;;9.30;49.21;101667.25;4934370;29;20146;-86
2022/04/11 05:55:55;;;;;;;37.15;30.42;;;;;;;9.20;48.57;101656.41;4951315;28;20092;-86
2022/04/11 05:58:23;;;;;;;3.97;3.58;;;;;;;9.74;48.77;101744.75;4947074;28;20063;-86
2022/04/11 06:00:54;;;;;;;4.20;3.35;;;;;;;8.52;49.70;101547.94;4946784;29;20047;-87
2022/04/11 06:03:20;;;;;;;3.60;3.30;;;;;;;9.62;48.88;101720.75;4930755;29;20560;-86
2022/04/11 06:05:47;;;;;;;4.45;3.88;;;;;;;9.33;48.82;101668.84;4947925;29;20054;-86
2022/04/11 06:08:14;;;;;;;4.25;3.50;;;;;;;9.75;48.38;101722.59;4930412;29;20146;-86
2022/04/11 06:10:40;;;;;;;6.65;3.80;;;;;;;9.31;48.33;101652.19;4946966;29;20146;-86
2022/04/11 06:13:07;;;;;;;4.88;3.47;;;;;;;9.92;48.55;101748.81;4943402;29;20063;-84
2022/04/11 06:15:34;;;;;;;6.68;3.83;;;;;;;10.01;49.03;101742.88;4925769;29;20055;-84
2022/04/11 06:18:00;;;;;;;4.47;3.33;;;;;;;10.15;48.73;101751.72;4926506;29;20694;-85
2022/04/11 06:20:27;;;;;;;8.38;3.85;;;;;;;9.63;48.51;101660.63;4931575;29;20059;-85
2022/04/11 06:22:54;;;;;;;7.00;3.45;;;;;;;10.17;48.73;101723.25;4931643;29;20306;-86
2022/04/11 06:25:20;;;;;;;9.70;4.22;;;;;;;9.65;48.65;101634.00;4948814;29;20104;-85
2022/04/11 06:27:47;;;;;;;5.30;3.70;;;;;;;9.23;48.97;101569.75;4949067;29;20461;-85
2022/04/11 06:30:14;;;;;;;8.88;3.70;;;;;;;9.24;48.79;101561.66;4947747;29;20075;-85
2022/04/11 06:32:40;;;;;;;4.63;3.58;;;;;;;9.07;49.47;101516.94;4932215;29;20081;-85
2022/04/11 06:35:08;;;;;;;4.50;3.65;;;;;;;9.69;49.03;101595.75;4946966;29;20058;-85
2022/04/11 06:37:34;;;;;;;6.25;3.50;;;;;;;10.21;49.28;101690.25;4948789;29;20055;-85
2022/04/11 06:40:02;;;;;;;8.68;4.28;;;;;;;9.68;48.78;101597.50;4937729;29;20059;-84
2022/04/11 06:42:29;;;;;;;3.88;3.50;;;;;;;10.64;49.02;101732.38;4964128;29;20043;-84
2022/04/11 06:44:56;;;;;;;5.03;2.97;;;;;;;10.95;48.65;101757.59;4957401;28;20486;-85
2022/04/11 06:47:23;;;;;;;6.97;3.50;;;;;;;10.91;48.73;101743.66;4931748;29;20332;-85
2022/04/11 06:49:52;;;;;;;5.57;3.55;;;;;;;10.31;47.69;101630.28;4931709;29;20113;-84
2022/04/11 06:52:19;;;;;;;11.43;4.40;;;;;;;9.73;47.07;101522.97;4930500;29;20065;-84
2022/04/11 06:54:45;;;;;;;9.50;3.58;;;;;;;11.11;46.21;101730.75;4948015;29;20043;-84
2022/04/11 06:57:12;;;;;;;5.85;3.70;;;;;;;11.47;47.63;101768.88;4932142;29;20059;-85
2022/04/11 06:59:42;;;;;;;6.38;3.58;;;;;;;11.59;48.76;101762.63;4947839;29;20130;-84
2022/04/11 07:02:08;;;;;;;4.20;3.30;;;;;;;11.77;48.02;101766.59;4950724;29;20263;-85
2022/04/11 07:04:35;;;;;;;11.05;3.95;;;;;;;10.42;48.20;101529.47;4952121;29;20055;-85
2022/04/11 07:07:02;;;;;;;7.85;3.78;;;;;;;11.77;48.26;101753.28;4934691;29;20058;-84
2022/04/11 07:09:35;;;;;;;6.15;3.45;;;;;;;11.85;47.89;101735.91;4934796;28;20581;-85
2022/04/11 07:12:02;;;;;;;5.72;3.60;;;;;;;10.57;48.36;101524.00;4950397;29;20054;-86
2022/04/11 07:14:32;;;;;;;2.70;2.30;;;;;;;11.20;45.01;101609.63;4933034;29;20047;-87
2022/04/11 07:17:05;;;;;;;5.18;2.30;;;;;;;11.66;43.87;101664.63;4934873;29;20055;-85
2022/04/11 07:19:32;;;;;;;5.07;2.20;;;;;;;12.34;43.34;101782.72;4950154;29;20051;-85
2022/04/11 07:21:58;;;;;;;6.57;2.33;;;;;;;12.36;43.70;101765.66;4933660;29;20090;-83
2022/04/11 07:24:25;;;;;;;4.50;2.80;;;;;;;11.78;43.95;101669.00;4935350;29;20055;-85
2022/04/11 07:26:52;;;;;;;8.05;2.70;;;;;;;11.11;43.46;101529.59;4935235;29;20082;-84
2022/04/11 07:29:18;;;;;;;6.30;1.90;;;;;;;12.50;42.41;101745.06;4932304;29;20076;-85
2022/04/11 07:31:45;;;;;;;5.15;1.98;;;;;;;12.39;42.32;101721.94;4950556;29;20047;-84
2022/04/11 07:34:12;;;;;;;4.78;1.67;;;;;;;12.76;42.11;101772.31;4933211;29;20472;-85
2022/04/11 07:36:38;;;;;;;4.38;1.70;;;;;;;12.64;42.16;101741.31;4949015;29;20062;-84
2022/04/11 07:39:05;;;;;;;3.72;1.90;;;;;;;12.97;41.65;101788.41;4932670;29;20394;-84
2022/04/11 07:41:31;;;;;;;2.05;1.85;;;;;;;12.64;40.78;101730.66;4931416;29;20101;-85
2022/04/11 07:43:58;;;;;;;2.50;1.77;;;;;;;12.88;41.33;101760.66;4948562;29;20078;-85
2022/04/11 07:46:25;;;;;;;2.45;1.73;;;;;;;13.12;41.43;101794.31;4948558;29;20240;-84
2022/04/11 07:48:51;;;;;;;3.22;1.85;;;;;;;12.95;40.84;101783.19;4932295;29;20448;-85
2022/04/11 07:51:18;;;;;;;2.75;1.63;;;;;;;13.03;40.71;101794.09;4932268;29;20050;-84
2022/04/11 07:53:45;;;;;;;3.15;2.33;;;;;;;12.97;41.07;101775.09;4931602;29;20319;-85
2022/04/11 07:56:11;;;;;;;3.35;2.00;;;;;;;13.08;41.57;101790.19;4930698;29;20142;-85
2022/04/11 07:58:38;;;;;;;2.00;1.80;;;;;;;12.83;40.68;101746.88;4931042;29;20313;-85
2022/04/11 08:01:04;;;;;;;2.15;1.95;;;;;;;13.05;40.44;101773.47;4930732;29;20342;-86
2022/04/11 08:03:31;;;;;;;2.17;1.77;;;;;;;13.10;40.26;101793.59;4930685;29;20055;-86
2022/04/11 08:05:58;;;;;;;3.92;1.70;;;;;;;12.59;40.13;101718.53;4947673;29;20145;-85
2022/04/11 08:08:25;;;;;;;3.67;1.75;;;;;;;13.21;40.23;101798.91;4930657;29;20210;-86
2022/04/11 08:10:51;;;;;;;3.25;2.20;;;;;;;13.26;40.54;101807.38;4931068;29;20078;-86
2022/04/11 08:13:18;;;;;;;4.20;1.60;;;;;;;13.33;40.51;101803.28;4930766;29;20142;-86
2022/04/11 08:15:45;;;;;;;2.00;1.67;;;;;;;13.48;39.06;101805.66;4933158;29;20451;-85
2022/04/11 08:18:11;;;;;;;6.85;1.95;;;;;;;13.50;39.17;101806.41;4931784;29;20067;-86
2022/04/11 08:20:38;;;;;;;4.28;2.10;;;;;;;13.43;39.15;101793.53;4931477;29;20071;-84
2022/04/11 08:23:05;;;;;;;4.00;2.20;;;;;;;13.29;38.97;101759.16;4953169;28;20051;-83
2022/04/11 08:25:31;;;;;;;3.25;2.15;;;;;;;13.18;39.82;101756.47;4935856;29;20489;-84
2022/04/11 08:27:58;;;;;;;3.75;2.33;;;;;;;13.29;39.90;101777.81;4936288;29;20043;-85
2022/04/11 08:30:25;;;;;;;3.97;2.10;;;;;;;12.38;39.97;101629.72;4951469;29;20482;-84
2022/04/11 08:32:53;;;;;;;7.30;2.42;;;;;;;12.77;40.54;101680.75;4934275;29;20051;-85
2022/04/11 08:35:21;;;;;;;3.38;2.20;;;;;;;13.70;40.72;101812.75;4935470;29;20067;-85
2022/04/11 08:37:49;;;;;;;2.67;2.17;;;;;;;13.15;40.34;101735.41;4933989;29;20063;-86
2022/04/11 08:40:20;;;;;;;2.55;2.30;;;;;;;13.59;40.49;101789.59;4953208;28;20051;-85
2022/04/11 08:42:49;;;;;;;6.70;3.30;;;;;;;12.84;41.37;101652.66;4953969;28;20047;-85
2022/04/11 08:45:19;;;;;;;5.90;3.03;;;;;;;13.48;42.46;101773.66;4953355;28;20070;-85
2022/04/11 08:47:48;;;;;;;3.60;3.05;;;;;;;13.30;42.89;101741.34;4952671;28;20051;-85
2022/04/11 08:50:15;;;;;;;3.70;3.00;;;;;;;13.42;42.49;101732.31;4952970;28;20058;-85
2022/04/11 08:52:42;;;;;;;4.38;3.15;;;;;;;13.70;43.01;101776.22;4952979;28;20077;-86
2022/04/11 08:55:10;;;;;;;2.80;2.60;;;;;;;13.81;42.12;101786.88;4953202;28;20059;-85
2022/04/11 08:57:37;;;;;;;3.40;3.10;;;;;;;13.93;41.88;101800.13;4952529;28;20492;-86
2022/04/11 09:00:07;;;;;;;4.43;3.30;;;;;;;13.23;42.00;101671.66;4953781;28;20051;-85
2022/04/11 09:02:34;;;;;;;6.90;3.08;;;;;;;13.63;42.03;101730.53;4969725;28;20058;-85
2022/04/11 09:05:02;;;;;;;3.92;3.03;;;;;;;13.10;41.17;101631.81;4957264;28;20145;-86
2022/04/11 09:07:52;;;;;;;3.50;2.80;;;;;;;14.24;40.61;101799.22;4984272;28;20141;-87
2022/04/11 09:10:20;;;;;;;4.55;2.78;;;;;;;14.23;40.52;101804.72;4969122;28;20504;-86
2022/04/11 09:12:56;;;;;;;3.88;2.92;;;;;;;14.05;40.67;101743.03;4953632;28;20051;-86
2022/04/11 09:15:25;;;;;;;3.20;2.90;;;;;;;13.92;39.49;101724.56;4952821;28;20047;-86
2022/04/11 09:17:53;;;;;;;3.28;2.97;;;;;;;13.70;39.17;101677.50;4969881;28;20117;-86
2022/04/11 09:20:24;;;;;;;3.08;2.30;;;;;;;14.40;40.13;101784.56;4953076;28;20138;-86
2022/04/11 09:22:51;;;;;;;5.32;2.92;;;;;;;14.55;39.68;101785.94;4953088;28;20129;-86
2022/04/11 09:25:20;;;;;;;3.38;3.00;;;;;;;14.60;39.10;101788.22;4970280;28;20063;-86
2022/04/11 09:28:02;;;;;;;5.82;2.80;;;;;;;14.73;39.72;101800.38;4950230;28;20061;-87
2022/04/11 09:30:31;;;;;;;4.30;3.90;;;;;;;13.21;40.05;101526.94;4946074;29;20059;-85
2022/04/11 09:32:58;;;;;;;3.75;3.40;;;;;;;14.91;39.67;101794.38;4956962;28;20315;-82
2022/04/11 09:35:32;;;;;;;4.03;3.72;;;;;;;14.20;40.04;101650.94;4937359;29;20078;-85
2022/04/11 09:38:14;;;;;;;5.10;3.75;;;;;;;15.31;39.59;101774.75;4955371;29;20055;-83
2022/04/11 09:40:48;;;;;;;4.30;3.90;;;;;;;15.30;39.35;101749.00;4943629;29;20043;-86
2022/04/11 09:43:27;;;;;;;5.40;3.80;;;;;;;15.59;38.12;101771.25;4952219;29;20164;-86
2022/04/11 09:45:55;;;;;;;4.78;4.13;;;;;;;15.73;38.56;101778.06;4935721;29;20048;-85
2022/04/11 09:48:24;;;;;;;8.73;4.57;;;;;;;15.85;37.77;101770.75;4950598;29;20512;-86
2022/04/11 09:50:53;;;;;;;5.00;4.18;;;;;;;16.17;37.95;101791.00;4950124;29;20055;-87
2022/04/11 09:53:31;;;;;;;4.57;4.18;;;;;;;16.33;37.85;101780.50;4949118;29;20047;-87
2022/04/11 09:56:03;;;;;;;4.72;3.53;;;;;;;16.59;37.00;101779.84;4949071;29;20138;-86
2022/04/11 09:58:34;;;;;;;3.90;3.63;;;;;;;16.74;36.54;101785.56;4933512;29;20055;-86
2022/04/11 10:01:02;;;;;;;5.00;3.55;;;;;;;16.85;36.12;101763.97;4948605;29;20051;-86
2022/04/11 10:03:30;;;;;;;4.20;3.80;;;;;;;16.86;36.03;101733.47;4930030;29;20062;-86
2022/04/11 10:06:05;;;;;;;5.45;3.83;;;;;;;16.34;35.86;101613.38;4931188;29;20051;-87
2022/04/11 10:08:33;;;;;;;4.53;4.10;;;;;;;17.32;35.63;101744.19;4932515;29;20055;-86
2022/04/11 10:11:00;;;;;;;5.85;3.88;;;;;;;17.26;35.43;101719.66;4932599;29;20442;-87
2022/04/11 10:13:26;;;;;;;5.78;3.90;;;;;;;17.41;36.09;101721.78;4948127;29;20094;-87
2022/04/11 10:15:53;;;;;;;5.32;4.38;;;;;;;17.94;35.27;101767.41;4932819;29;20043;-87
2022/04/11 10:18:25;;;;;;;6.85;3.72;;;;;;;16.71;33.67;101548.09;4932368;29;20052;-86
2022/04/11 10:21:02;;;;;;;4.00;3.35;;;;;;;17.21;33.73;101619.13;4933134;29;20055;-86
2022/04/11 10:23:54;;;;;;;3.90;3.40;;;;;;;17.80;33.96;101689.22;4949500;28;20518;-87
2022/04/11 10:26:22;;;;;;;4.93;3.08;;;;;;;18.45;33.70;101758.66;4948138;29;20192;-85
2022/04/11 10:28:53;;;;;;;5.60;3.47;;;;;;;18.05;32.88;101656.13;4949438;29;20572;-82
2022/04/11 10:31:23;;;;;;;3.63;3.33;;;;;;;18.34;31.71;101692.56;4932532;29;20054;-87
2022/04/11 10:33:50;;;;;;;3.97;3.50;;;;;;;19.11;32.14;101762.50;4931981;29;20785;-86
2022/04/11 10:36:29;;;;;;;3.50;3.20;;;;;;;18.88;30.88;101698.50;4948045;29;20087;-86
2022/04/11 10:39:17;;;;;;;3.30;3.00;;;;;;;19.42;31.21;101763.56;4947656;29;20082;-87
2022/04/11 10:41:56;;;;;;;3.58;3.28;;;;;;;19.54;31.01;101758.69;4937515;28;20054;-86
2022/04/11 10:44:43;;;;;;;7.22;3.30;;;;;;;19.52;30.40;101751.78;4926666;29;20059;-86
2022/04/11 10:47:12;;;;;;;6.32;4.10;;;;;;;19.50;30.65;101753.81;4926162;29;20060;-86
2022/04/11 10:49:48;;;;;;;4.32;3.15;;;;;;;19.70;31.62;101748.97;4927903;29;20051;-85
2022/04/11 10:52:41;;;;;;;3.70;3.40;;;;;;;19.91;31.75;101751.97;4928402;29;20520;-86
2022/04/11 10:55:10;;;;;;;4.15;3.28;;;;;;;19.41;29.67;101648.75;4911542;29;20441;-87
2022/04/11 10:57:51;;;;;;;3.50;3.20;;;;;;;18.74;29.91;101525.13;4950437;28;20481;-88
2022/04/11 11:00:31;;;;;;;3.67;3.30;;;;;;;19.55;30.15;101627.56;4930625;29;20055;-85
2022/04/11 11:03:01;;;;;;;3.60;3.30;;;;;;;20.38;29.84;101736.88;4924697;29;20411;-87
2022/04/11 11:05:35;;;;;;;3.10;2.80;;;;;;;20.58;29.59;101738.19;4927245;28;20058;-88
2022/04/11 11:08:23;;;;;;;4.32;2.88;;;;;;;20.33;29.61;101679.94;4940995;28;20051;-86
2022/04/11 11:10:57;;;;;;;3.30;3.00;;;;;;;20.74;29.35;101731.03;4928342;28;20517;-86
2022/04/11 11:13:41;;;;;;;7.65;2.80;;;;;;;20.82;29.57;101698.63;4926989;29;20051;-85
2022/04/11 11:16:07;;;;;;;3.00;2.80;;;;;;;21.17;29.06;101731.50;4942949;29;20106;-86
2022/04/11 11:18:47;;;;;;;3.00;2.80;;;;;;;20.93;28.82;101692.81;4928354;28;20067;-85
2022/04/11 11:21:18;;;;;;;4.13;3.72;;;;;;;21.15;29.45;101730.81;4927510;29;20075;-85
2022/04/11 11:24:04;;;;;;;4.15;3.08;;;;;;;20.93;28.97;101655.03;4927231;29;20713;-86
2022/04/11 11:26:40;;;;;;;3.95;3.13;;;;;;;21.26;28.32;101682.66;4930312;29;20079;-86
2022/04/11 11:29:28;;;;;;;3.50;3.20;;;;;;;21.32;27.79;101664.88;4929544;29;20082;-87
2022/04/11 11:32:03;;;;;;;3.80;3.40;;;;;;;20.90;28.79;101571.72;4928906;29;20048;-88
2022/04/11 11:34:36;;;;;;;4.20;3.80;;;;;;;20.55;28.76;101489.50;4929015;29;20054;-88